Time;durP1;ratioP1;P1;durP2;ratioP2;P2;SDS_P1;SDS_P2;PMS_P1;PMS_P2;Temp;Humidity;BMP_temperature;BMP_pressure;BME280_temperature;BME280_humidity;BME280_pressure;Samples;Min_cycle;Max_cycle;Signal;HPM_P1;HPM_P2
2024/02/08 09:01:29;;;;;;;;;;;;;;;5.93;100.00;98097.97;4998709;23;19931;-85
2024/02/08 09:04:10;;;;;;;;;;;;;;;5.96;100.00;98095.22;4927713;29;20001;-87
2024/02/08 09:06:38;;;;;;;;;;;;;;;5.98;100.00;98095.16;4910002;29;20436;-90
2024/02/08 09:09:27;;;;;;;;;;;;;;;6.00;100.00;98088.91;4927544;29;20393;-87
2024/02/08 09:11:57;;;;;;;;;;;;;;;6.00;100.00;98093.31;4927409;29;20059;-84
2024/02/08 09:14:25;;;;;;;;;;;;;;;6.00;100.00;98088.06;4925974;29;20049;-87
2024/02/08 09:16:52;;;;;;;;;;;;;;;5.99;100.00;98084.56;4926947;29;19926;-87
2024/02/08 09:19:27;;;;;;;;;;;;;;;6.02;100.00;98083.56;4926565;29;20009;-89
2024/02/08 09:21:52;;;;;;;;;;;;;;;6.00;100.00;98081.00;4927358;29;19926;-87
2024/02/08 09:24:18;;;;;;;;;;;;;;;6.03;100.00;98085.28;4926695;29;19919;-89
2024/02/08 09:26:52;;;;;;;;;;;;;;;6.02;100.00;98077.47;4909357;29;19921;-87
2024/02/08 09:29:25;;;;;;;;;;;;;;;6.07;100.00;98075.44;4925216;29;19975;-86
2024/02/08 09:31:56;;;;;;;;;;;;;;;6.06;100.00;98076.34;4926705;29;20009;-87
2024/02/08 09:34:22;;;;;;;;;;;;;;;6.07;100.00;98071.03;4926530;29;19930;-88
2024/02/08 09:36:57;;;;;;;;;;;;;;;6.08;100.00;98072.72;4926274;29;20461;-88
2024/02/08 09:39:48;;;;;;;;;;;;;;;6.10;100.00;98075.28;4926452;29;19922;-88
2024/02/08 09:42:07;;;;;;;;;;;;;;;6.10;100.00;98064.75;4926942;29;20391;-85
2024/02/08 09:44:36;;;;;;;;;;;;;;;6.07;100.00;98057.88;4925284;29;19925;-86
2024/02/08 09:47:06;;;;;;;;;;;;;;;6.09;100.00;98050.75;4932807;29;20277;-86
2024/02/08 09:49:34;;;;;;;;;;;;;;;6.12;100.00;98055.00;4926440;29;19923;-85
2024/02/08 09:52:14;;;;;;;;;;;;;;;6.05;100.00;98061.50;4927177;29;19985;-85
2024/02/08 09:54:46;;;;;;;;;;;;;;;6.08;100.00;98046.44;4926168;29;19919;-86
2024/02/08 09:57:31;;;;;;;;;;;;;;;6.04;100.00;98051.94;4925955;29;19919;-86
2024/02/08 09:59:59;;;;;;;;;;;;;;;6.11;100.00;98042.78;4925141;29;20366;-85
2024/02/08 10:02:32;;;;;;;;;;;;;;;6.09;100.00;98042.00;4925825;29;20302;-85
2024/02/08 10:04:58;;;;;;;;;;;;;;;6.11;100.00;98040.16;4926244;29;19923;-85
2024/02/08 10:07:34;;;;;;;;;;;;;;;6.09;100.00;98039.38;4926444;29;19918;-86
2024/02/08 10:10:14;;;;;;;;;;;;;;;6.10;100.00;98041.94;4926206;29;20009;-85
2024/02/08 10:12:53;;;;;;;;;;;;;;;6.06;100.00;98042.19;4926717;29;19923;-86
2024/02/08 10:15:25;;;;;;;;;;;;;;;6.11;100.00;98037.50;4924585;29;19923;-86
2024/02/08 10:18:02;;;;;;;;;;;;;;;6.12;100.00;98036.59;4926093;29;19923;-85
2024/02/08 10:20:45;;;;;;;;;;;;;;;6.12;100.00;98028.72;4926124;29;20334;-85
2024/02/08 10:23:33;;;;;;;;;;;;;;;6.15;100.00;98041.69;4926516;29;19915;-85
2024/02/08 10:28:42;;;;;;;;;;;;;;;6.17;100.00;98038.06;4926271;29;19970;-85
2024/02/08 10:31:07;;;;;;;;;;;;;;;6.21;100.00;98036.13;4924557;29;20378;-85
2024/02/08 10:33:37;;;;;;;;;;;;;;;6.19;100.00;98030.09;4926246;29;19926;-85
2024/02/08 10:36:10;;;;;;;;;;;;;;;6.19;100.00;98040.63;4925501;29;19916;-85
2024/02/08 10:38:55;;;;;;;;;;;;;;;6.26;100.00;98041.97;4926101;29;19923;-85
2024/02/08 10:41:35;;;;;;;;;;;;;;;6.19;100.00;98045.88;4925719;29;19919;-83
2024/02/08 10:44:05;;;;;;;;;;;;;;;6.22;100.00;98045.69;4925648;29;19926;-85
2024/02/08 10:46:31;;;;;;;;;;;;;;;6.27;100.00;98043.69;4924097;29;19926;-84
2024/02/08 10:49:08;;;;;;;;;;;;;;;6.25;100.00;98044.69;4931293;29;19922;-84
2024/02/08 10:51:35;;;;;;;;;;;;;;;6.26;100.00;98035.88;4925214;29;19919;-84
2024/02/08 10:54:05;;;;;;;;;;;;;;;6.29;100.00;98047.06;4925542;29;19920;-84
2024/02/08 10:56:40;;;;;;;;;;;;;;;6.27;100.00;98050.72;4925316;29;20330;-85
2024/02/08 11:01:33;;;;;;;;;;;;;;;6.28;100.00;98055.06;4924596;29;19922;-85
2024/02/08 11:04:07;;;;;;;;;;;;;;;6.32;100.00;98046.91;4925619;29;19922;-85
2024/02/08 11:06:44;;;;;;;;;;;;;;;6.31;100.00;98036.47;4925383;29;19925;-86
2024/02/08 11:09:14;;;;;;;;;;;;;;;6.33;100.00;98040.75;4925314;29;20374;-85
2024/02/08 11:11:49;;;;;;;;;;;;;;;6.34;100.00;98036.31;4925273;29;19921;-89
2024/02/08 11:14:19;;;;;;;;;;;;;;;6.33;100.00;98040.75;4907454;29;19926;-87
2024/02/08 11:16:47;;;;;;;;;;;;;;;6.35;100.00;98025.72;4925899;29;19923;-86
2024/02/08 11:19:17;;;;;;;;;;;;;;;6.31;100.00;98021.53;4925228;29;20019;-86
2024/02/08 11:21:43;;;;;;;;;;;;;;;6.27;100.00;98017.38;4925281;29;19943;-84
2024/02/08 11:24:08;;;;;;;;;;;;;;;6.27;100.00;98016.50;4924893;29;19927;-86
2024/02/08 11:26:34;;;;;;;;;;;;;;;6.30;100.00;98013.72;4925554;29;20343;-83
2024/02/08 11:29:04;;;;;;;;;;;;;;;6.32;100.00;98007.47;4925476;29;20362;-86
2024/02/08 11:31:32;;;;;;;;;;;;;;;6.25;100.00;98002.59;4923771;29;19926;-89
2024/02/08 11:34:24;;;;;;;;;;;;;;;6.25;100.00;98008.72;4924889;29;20005;-86
2024/02/08 11:36:52;;;;;;;;;;;;;;;6.25;100.00;98000.81;4925303;29;19922;-86
2024/02/08 11:39:26;;;;;;;;;;;;;;;6.29;100.00;98007.63;4925900;29;19998;-88
2024/02/08 11:41:52;;;;;;;;;;;;;;;6.33;100.00;98005.66;4925216;29;20330;-88
2024/02/08 11:44:25;;;;;;;;;;;;;;;6.27;100.00;98001.59;4923512;29;19926;-86
2024/02/08 11:46:59;;;;;;;;;;;;;;;6.31;100.00;98004.91;4924896;29;20370;-86
2024/02/08 11:49:35;;;;;;;;;;;;;;;6.27;100.00;98006.00;4925159;29;19919;-86
2024/02/08 11:52:06;;;;;;;;;;;;;;;6.29;100.00;97997.09;4924880;29;20408;-86
2024/02/08 11:54:32;;;;;;;;;;;;;;;6.32;100.00;97993.47;4924924;29;20362;-86
2024/02/08 11:56:58;;;;;;;;;;;;;;;6.32;100.00;97993.47;4924744;29;19924;-85
2024/02/08 11:59:24;;;;;;;;;;;;;;;6.32;100.00;97993.47;4923659;29;20023;-86
2024/02/08 12:01:51;;;;;;;;;;;;;;;6.34;100.00;97987.19;4927977;29;19922;-85
2024/02/08 12:04:16;;;;;;;;;;;;;;;6.33;100.00;97992.50;4928506;29;19997;-85
2024/02/08 12:06:46;;;;;;;;;;;;;;;6.35;100.00;97993.28;4933873;29;20057;-89
2024/02/08 12:09:22;;;;;;;;;;;;;;;6.35;100.00;97988.88;4935191;29;19962;-84
2024/02/08 12:11:47;;;;;;;;;;;;;;;6.41;100.00;97985.06;4928352;29;20001;-85
2024/02/08 12:14:13;;;;;;;;;;;;;;;6.38;100.00;97981.75;4927230;29;20013;-89
2024/02/08 12:16:50;;;;;;;;;;;;;;;6.35;100.00;97977.50;4927982;29;19919;-84
2024/02/08 12:19:16;;;;;;;;;;;;;;;6.37;100.00;97973.03;4910899;29;19923;-86
2024/02/08 12:21:42;;;;;;;;;;;;;;;6.36;100.00;97972.16;4927692;29;19927;-85
2024/02/08 12:24:15;;;;;;;;;;;;;;;6.37;100.00;97970.38;4910599;29;20418;-85
2024/02/08 12:26:42;;;;;;;;;;;;;;;6.39;100.00;97962.41;4928361;29;19919;-84
2024/02/08 12:29:16;;;;;;;;;;;;;;;6.40;100.00;97962.31;4927780;29;19926;-85
2024/02/08 12:31:45;;;;;;;;;;;;;;;6.34;100.00;97949.50;4927808;29;19927;-84
2024/02/08 12:34:13;;;;;;;;;;;;;;;6.33;100.00;97943.41;4927885;29;20006;-85
2024/02/08 12:36:39;;;;;;;;;;;;;;;6.30;100.00;97948.84;4927615;29;20025;-88
2024/02/08 12:39:17;;;;;;;;;;;;;;;6.34;100.00;97944.25;4926900;29;20006;-86
2024/02/08 12:41:43;;;;;;;;;;;;;;;6.35;100.00;97945.91;4927395;29;19946;-84
2024/02/08 12:44:09;;;;;;;;;;;;;;;6.35;100.00;97938.91;4910147;29;19998;-85
2024/02/08 12:46:34;;;;;;;;;;;;;;;6.31;100.00;97924.22;4927583;29;20018;-85
2024/02/08 12:49:00;;;;;;;;;;;;;;;6.30;100.00;97922.53;4927712;29;19970;-85
2024/02/08 12:51:36;;;;;;;;;;;;;;;6.34;100.00;97916.16;4927285;29;19923;-85
2024/02/08 12:54:07;;;;;;;;;;;;;;;6.29;100.00;97912.94;4928120;29;20394;-86
2024/02/08 12:56:34;;;;;;;;;;;;;;;6.33;100.00;97909.22;4927940;29;19942;-85
2024/02/08 12:59:03;;;;;;;;;;;;;;;6.34;100.00;97910.06;4927492;29;19926;-88
2024/02/08 13:01:38;;;;;;;;;;;;;;;6.32;100.00;97904.03;4926011;29;19927;-87
2024/02/08 13:04:06;;;;;;;;;;;;;;;6.33;100.00;97898.69;4926986;29;19919;-86
2024/02/08 13:06:32;;;;;;;;;;;;;;;6.39;100.00;97894.84;4909891;29;19919;-87
2024/02/08 13:11:48;;;;;;;;;;;;;;;6.36;100.00;97902.91;4927220;29;19951;-87
2024/02/08 13:14:18;;;;;;;;;;;;;;;6.39;100.00;97904.53;4925760;29;19920;-89
2024/02/08 13:16:44;;;;;;;;;;;;;;;6.41;100.00;97908.75;4927583;29;19979;-86
2024/02/08 13:19:13;;;;;;;;;;;;;;;6.37;100.00;97896.72;4926826;29;19922;-87
2024/02/08 13:21:40;;;;;;;;;;;;;;;6.38;100.00;97889.66;4927121;29;19918;-90
2024/02/08 13:24:07;;;;;;;;;;;;;;;6.39;100.00;97888.75;4926641;29;19923;-88
2024/02/08 13:26:36;;;;;;;;;;;;;;;6.36;100.00;97885.34;4927492;29;20384;-85
2024/02/08 13:29:02;;;;;;;;;;;;;;;6.38;100.00;97893.13;4926985;29;19919;-86
2024/02/08 13:31:28;;;;;;;;;;;;;;;6.39;100.00;97894.84;4925153;29;19930;-85
2024/02/08 13:33:55;;;;;;;;;;;;;;;6.36;100.00;97889.75;4927399;29;19930;-86
2024/02/08 13:36:24;;;;;;;;;;;;;;;6.38;100.00;97881.78;4926636;29;19923;-87
2024/02/08 13:38:51;;;;;;;;;;;;;;;6.40;100.00;97879.91;4926593;29;19922;-86
2024/02/08 13:41:16;;;;;;;;;;;;;;;6.35;100.00;97878.41;4923924;29;19919;-88
2024/02/08 13:43:46;;;;;;;;;;;;;;;6.35;100.00;97888.91;4927023;29;20006;-91
2024/02/08 13:46:13;;;;;;;;;;;;;;;6.36;100.00;97874.81;4908877;29;20371;-86
2024/02/08 13:48:38;;;;;;;;;;;;;;;6.33;100.00;97882.03;4926749;29;19958;-94
2024/02/08 13:51:07;;;;;;;;;;;;;;;6.33;100.00;97876.78;4924237;29;20417;-86
2024/02/08 13:53:35;;;;;;;;;;;;;;;6.33;100.00;97877.66;4925923;29;19922;-86
2024/02/08 13:56:05;;;;;;;;;;;;;;;6.35;100.00;97867.88;4926816;29;19923;-86
2024/02/08 13:58:30;;;;;;;;;;;;;;;6.38;100.00;97861.56;4908778;29;19919;-86
2024/02/08 14:00:57;;;;;;;;;;;;;;;6.31;100.00;97861.06;4908346;29;19926;-88
2024/02/08 14:03:23;;;;;;;;;;;;;;;6.32;100.00;97862.78;4926150;29;19966;-87
2024/02/08 14:05:51;;;;;;;;;;;;;;;6.34;100.00;97866.16;4908363;29;19975;-88
2024/02/08 14:08:17;;;;;;;;;;;;;;;6.33;100.00;97853.97;4926131;29;19927;-90
2024/02/08 14:10:42;;;;;;;;;;;;;;;6.34;100.00;97845.13;4908369;29;19919;-86
2024/02/08 14:13:09;;;;;;;;;;;;;;;6.37;100.00;97846.75;4926095;29;19992;-87
2024/02/08 14:15:38;;;;;;;;;;;;;;;6.35;100.00;97840.69;4907256;29;20293;-93
2024/02/08 14:18:22;;;;;;;;;;;;;;;6.35;100.00;97844.19;4908400;29;20328;-88
2024/02/08 14:20:56;;;;;;;;;;;;;;;6.39;100.00;97836.13;4926527;29;19923;-85
2024/02/08 14:23:31;;;;;;;;;;;;;;;6.38;100.00;97831.81;4924489;29;20371;-85
2024/02/08 14:28:42;;;;;;;;;;;;;;;6.38;100.00;97819.47;4925662;29;20001;-85
2024/02/08 14:31:09;;;;;;;;;;;;;;;6.33;100.00;97821.53;4924791;29;20374;-83
2024/02/08 14:33:35;;;;;;;;;;;;;;;6.38;100.00;97821.28;4925857;29;20445;-85
2024/02/08 14:36:09;;;;;;;;;;;;;;;6.34;100.00;97818.81;4925287;29;19919;-85
2024/02/08 14:38:41;;;;;;;;;;;;;;;6.33;100.00;97814.50;4925462;29;19926;-84
2024/02/08 14:41:07;;;;;;;;;;;;;;;6.35;100.00;97815.25;4925970;29;19923;-91
2024/02/08 14:43:33;;;;;;;;;;;;;;;6.32;100.00;97815.44;4925521;29;19930;-87
2024/02/08 14:46:02;;;;;;;;;;;;;;;6.36;100.00;97816.94;4924379;29;19919;-84
2024/02/08 14:48:27;;;;;;;;;;;;;;;6.34;100.00;97810.09;4925662;29;20421;-83
2024/02/08 14:51:05;;;;;;;;;;;;;;;6.39;100.00;97809.84;4925319;29;19919;-86
2024/02/08 14:53:32;;;;;;;;;;;;;;;6.34;100.00;97808.28;4926084;29;20267;-86
2024/02/08 14:56:00;;;;;;;;;;;;;;;6.33;100.00;97800.50;4925187;29;19930;-86
2024/02/08 14:58:56;;;;;;;;;;;;;;;6.33;100.00;97797.88;4925582;29;19999;-89
2024/02/08 15:01:30;;;;;;;;;;;;;;;6.38;100.00;97792.34;4923251;29;19959;-87
2024/02/08 15:03:58;;;;;;;;;;;;;;;6.39;100.00;97792.25;4925185;29;20331;-86
2024/02/08 15:11:57;;;;;;;;;;;;;;;6.40;100.00;97779.94;4925293;29;19926;-88
2024/02/08 15:14:28;;;;;;;;;;;;;;;6.42;100.00;97778.09;4924505;29;20455;-85
2024/02/08 15:16:53;;;;;;;;;;;;;;;6.41;100.00;97777.22;4925700;29;20363;-86
2024/02/08 15:19:25;;;;;;;;;;;;;;;6.41;100.00;97765.84;4925038;29;19930;-90
2024/02/08 15:21:52;;;;;;;;;;;;;;;6.38;100.00;97776.56;4924938;29;19926;-87
2024/02/08 15:24:21;;;;;;;;;;;;;;;6.39;100.00;97768.56;4925233;29;19923;-87
2024/02/08 15:27:04;;;;;;;;;;;;;;;6.36;100.00;97768.75;4924951;29;19994;-86
2024/02/08 15:30:36;;;;;;;;;;;;;;;6.37;100.00;97757.31;4906660;29;19923;-86
2024/02/08 15:32:40;;;;;;;;;;;;;;;6.37;100.00;97767.81;4909963;29;19919;-86
2024/02/08 15:35:22;;;;;;;;;;;;;;;6.34;100.00;97755.69;4909734;29;19926;-86
2024/02/08 15:38:07;;;;;;;;;;;;;;;6.33;100.00;97754.00;4929103;29;20004;-84
2024/02/08 15:40:32;;;;;;;;;;;;;;;6.33;100.00;97751.38;4935100;29;20008;-87
2024/02/08 15:42:57;;;;;;;;;;;;;;;6.34;100.00;97754.84;4928465;29;19934;-83
2024/02/08 15:45:27;;;;;;;;;;;;;;;6.31;100.00;97747.97;4927550;29;20282;-85
2024/02/08 15:48:00;;;;;;;;;;;;;;;6.36;100.00;97740.66;4911182;29;19919;-84
2024/02/08 15:50:32;;;;;;;;;;;;;;;6.33;100.00;97732.97;4928985;29;19919;-86
2024/02/08 15:52:58;;;;;;;;;;;;;;;6.33;100.00;97737.38;4928265;29;19922;-86
2024/02/08 15:55:25;;;;;;;;;;;;;;;6.29;100.00;97726.19;4928387;29;19919;-87
2024/02/08 15:58:13;;;;;;;;;;;;;;;6.36;100.00;97727.50;4928185;29;19919;-84
2024/02/08 16:03:25;;;;;;;;;;;;;;;6.35;100.00;97710.03;4890975;29;19975;-85
2024/02/08 16:05:57;;;;;;;;;;;;;;;6.36;100.00;97714.34;4890340;29;19920;-82
2024/02/08 16:08:32;;;;;;;;;;;;;;;6.40;100.00;97711.53;4889803;29;20280;-85
2024/02/08 16:11:08;;;;;;;;;;;;;;;6.34;100.00;97707.50;4890262;29;19927;-85
2024/02/08 16:13:42;;;;;;;;;;;;;;;6.38;100.00;97713.41;4890472;29;20375;-84
2024/02/08 16:16:08;;;;;;;;;;;;;;;6.39;100.00;97720.38;4888847;29;19927;-85
2024/02/08 16:18:36;;;;;;;;;;;;;;;6.33;100.00;97724.22;4889094;29;19920;-82
2024/02/08 16:21:05;;;;;;;;;;;;;;;6.34;100.00;97708.34;4890005;29;19967;-85
2024/02/08 16:23:43;;;;;;;;;;;;;;;6.35;100.00;97703.91;4888726;29;19924;-84
2024/02/08 16:26:09;;;;;;;;;;;;;;;6.31;100.00;97699.78;4889998;29;19967;-87
2024/02/08 16:28:37;;;;;;;;;;;;;;;6.33;100.00;97701.41;4890209;29;19928;-84
2024/02/08 16:31:07;;;;;;;;;;;;;;;6.28;100.00;97703.44;4889159;29;20006;-83
2024/02/08 16:33:33;;;;;;;;;;;;;;;6.32;100.00;97694.44;4890170;29;19927;-85
2024/02/08 16:36:21;;;;;;;;;;;;;;;6.29;100.00;97693.78;4890515;29;19920;-84
2024/02/08 16:38:56;;;;;;;;;;;;;;;6.32;100.00;97686.53;4891199;29;20010;-87
2024/02/08 16:41:23;;;;;;;;;;;;;;;6.28;100.00;97684.19;4889749;29;20466;-85
2024/02/08 16:43:49;;;;;;;;;;;;;;;6.30;100.00;97680.53;4889316;29;20439;-86
2024/02/08 16:46:21;;;;;;;;;;;;;;;6.33;100.00;97688.25;4888071;29;19924;-85
2024/02/08 16:48:47;;;;;;;;;;;;;;;6.34;100.00;97689.94;4890120;29;20018;-83
2024/02/08 16:51:25;;;;;;;;;;;;;;;6.36;100.00;97674.88;4890306;29;19984;-84
2024/02/08 16:54:01;;;;;;;;;;;;;;;6.34;100.00;97670.69;4889408;29;20317;-84
2024/02/08 16:56:39;;;;;;;;;;;;;;;6.35;100.00;97664.47;4890055;29;20331;-90
2024/02/08 16:59:09;;;;;;;;;;;;;;;6.39;100.00;97670.41;4888917;29;19995;-86
2024/02/08 17:01:40;;;;;;;;;;;;;;;6.40;100.00;97674.72;4900830;29;19969;-87
2024/02/08 17:09:43;;;;;;;;;;;;;;;6.36;100.00;97664.38;4928349;29;19965;-87
2024/02/08 17:12:17;;;;;;;;;;;;;;;6.35;100.00;97652.19;4926883;29;19930;-83
2024/02/08 17:14:46;;;;;;;;;;;;;;;6.35;100.00;97654.81;4924826;29;19951;-88
2024/02/08 17:17:22;;;;;;;;;;;;;;;6.35;100.00;97652.19;4926104;29;19919;-84
2024/02/08 17:20:05;;;;;;;;;;;;;;;6.36;100.00;97660.91;4909621;29;19927;-85
2024/02/08 17:22:51;;;;;;;;;;;;;;;6.33;100.00;97659.31;4927715;29;19958;-83
2024/02/08 17:28:53;;;;;;;;;;;;;;;6.35;100.00;97656.56;4926905;29;19926;-85
2024/02/08 17:31:02;;;;;;;;;;;;;;;6.37;100.00;97654.72;4917984;29;19932;-87
2024/02/08 17:33:30;;;;;;;;;;;;;;;6.33;100.00;97642.66;4926952;29;19930;-85
2024/02/08 17:35:58;;;;;;;;;;;;;;;6.33;100.00;97654.06;4926771;29;19923;-89
2024/02/08 17:38:28;;;;;;;;;;;;;;;6.33;100.00;97654.06;4928427;29;19939;-86
2024/02/08 17:40:54;;;;;;;;;;;;;;;6.30;100.00;97658.63;4909183;29;19923;-87
2024/02/08 17:43:23;;;;;;;;;;;;;;;6.38;100.00;97651.13;4910466;29;19923;-86
2024/02/08 17:46:02;;;;;;;;;;;;;;;6.31;100.00;97650.66;4908175;29;19918;-83
2024/02/08 17:48:28;;;;;;;;;;;;;;;6.35;100.00;97657.44;4926493;29;19927;-84
2024/02/08 17:50:58;;;;;;;;;;;;;;;6.30;100.00;97658.63;4926236;29;19919;-84
2024/02/08 17:53:25;;;;;;;;;;;;;;;6.32;100.00;97654.97;4927721;29;19926;-90
2024/02/08 17:55:53;;;;;;;;;;;;;;;6.28;100.00;97652.63;4926926;29;19923;-85
2024/02/08 17:58:22;;;;;;;;;;;;;;;6.32;100.00;97652.34;4930363;29;19923;-82
2024/02/08 18:00:48;;;;;;;;;;;;;;;6.29;100.00;97655.16;4907776;29;20030;-84
2024/02/08 18:03:15;;;;;;;;;;;;;;;6.35;100.00;97656.56;4926392;29;19923;-84
2024/02/08 18:05:47;;;;;;;;;;;;;;;6.35;100.00;97657.44;4927495;29;19933;-87
2024/02/08 18:08:13;;;;;;;;;;;;;;;6.29;100.00;97665.69;4926231;29;19923;-85
2024/02/08 18:10:43;;;;;;;;;;;;;;;6.30;100.00;97670.03;4927248;29;19934;-88
2024/02/08 18:13:09;;;;;;;;;;;;;;;6.31;100.00;97669.06;4925460;29;19930;-86
2024/02/08 18:15:36;;;;;;;;;;;;;;;6.31;100.00;97670.84;4924769;29;20244;-88
2024/02/08 18:18:04;;;;;;;;;;;;;;;6.31;100.00;97670.84;4908736;29;19923;-85
2024/02/08 18:20:33;;;;;;;;;;;;;;;6.29;100.00;97665.69;4924985;29;20374;-88
2024/02/08 18:23:02;;;;;;;;;;;;;;;6.31;100.00;97657.72;4926025;29;19923;-83
2024/02/08 18:25:30;;;;;;;;;;;;;;;6.26;100.00;97657.97;4925573;29;19950;-83
2024/02/08 18:27:58;;;;;;;;;;;;;;;6.25;100.00;97658.91;4927579;29;19919;-84
2024/02/08 18:30:26;;;;;;;;;;;;;;;6.29;100.00;97662.22;4924226;29;20421;-86
2024/02/08 18:32:53;;;;;;;;;;;;;;;6.28;100.00;97655.25;4925317;29;19930;-90
2024/02/08 18:35:21;;;;;;;;;;;;;;;6.27;100.00;97653.56;4908887;29;19919;-83
2024/02/08 18:37:47;;;;;;;;;;;;;;;6.28;100.00;97640.31;4925733;29;19919;-84
2024/02/08 18:40:18;;;;;;;;;;;;;;;6.30;100.00;97642.84;4925165;29;19930;-82
2024/02/08 18:42:47;;;;;;;;;;;;;;;6.26;100.00;97654.50;4925344;29;19922;-88
2024/02/08 18:45:16;;;;;;;;;;;;;;;6.32;100.00;97651.50;4907358;29;19919;-86
2024/02/08 18:47:41;;;;;;;;;;;;;;;6.29;100.00;97642.00;4908790;29;19944;-83
2024/02/08 18:50:07;;;;;;;;;;;;;;;6.32;100.00;97636.56;4925331;29;20375;-86
2024/02/08 18:52:33;;;;;;;;;;;;;;;6.36;100.00;97634.59;4907536;29;19962;-87
2024/02/08 18:54:59;;;;;;;;;;;;;;;6.39;100.00;97626.53;4908743;29;20026;-87
2024/02/08 18:57:25;;;;;;;;;;;;;;;6.35;100.00;97625.88;4908367;29;20018;-86
2024/02/08 18:59:51;;;;;;;;;;;;;;;6.34;100.00;97621.53;4923210;29;19938;-86
2024/02/08 19:02:24;;;;;;;;;;;;;;;6.30;100.00;97619.19;4925824;29;20338;-85
2024/02/08 19:04:52;;;;;;;;;;;;;;;6.29;100.00;97609.63;4925565;29;20302;-83
2024/02/08 19:07:18;;;;;;;;;;;;;;;6.27;100.00;97620.22;4907669;29;19929;-83
2024/02/08 19:09:48;;;;;;;;;;;;;;;6.26;100.00;97615.06;4924875;29;20290;-83
2024/02/08 19:12:16;;;;;;;;;;;;;;;6.24;100.00;97604.63;4926074;29;19950;-84
2024/02/08 19:14:43;;;;;;;;;;;;;;;6.25;100.00;97598.41;4929558;29;19977;-85
2024/02/08 19:17:09;;;;;;;;;;;;;;;6.23;100.00;97595.03;4931547;29;19919;-85
2024/02/08 19:19:35;;;;;;;;;;;;;;;6.24;100.00;97586.22;4907971;29;20017;-86
2024/02/08 19:22:00;;;;;;;;;;;;;;;6.23;100.00;97587.16;4925225;29;20005;-85
2024/02/08 19:24:28;;;;;;;;;;;;;;;6.22;100.00;97579.34;4925091;29;20094;-84
2024/02/08 19:26:55;;;;;;;;;;;;;;;6.21;100.00;97583.78;4924949;29;20014;-87
2024/02/08 19:29:24;;;;;;;;;;;;;;;6.20;100.00;97575.97;4924097;29;19946;-85
2024/02/08 19:31:51;;;;;;;;;;;;;;;6.16;100.00;97577.94;4908172;29;19923;-85
2024/02/08 19:34:18;;;;;;;;;;;;;;;6.19;100.00;97577.75;4906842;29;20021;-85
2024/02/08 19:36:53;;;;;;;;;;;;;;;6.20;100.00;97575.97;4925512;29;19923;-84
2024/02/08 19:41:56;;;;;;;;;;;;;;;6.18;100.00;97565.53;4924738;29;20050;-83
2024/02/08 19:44:25;;;;;;;;;;;;;;;6.22;100.00;97563.56;4924154;29;19929;-83
2024/02/08 19:46:53;;;;;;;;;;;;;;;6.18;100.00;97557.66;4923991;29;19923;-85
2024/02/08 19:49:20;;;;;;;;;;;;;;;6.16;100.00;97557.75;4923603;29;19927;-86
2024/02/08 19:51:46;;;;;;;;;;;;;;;6.19;100.00;97540.94;4908001;29;19950;-82
2024/02/08 19:54:11;;;;;;;;;;;;;;;6.16;100.00;97535.88;4924464;29;20375;-84
2024/02/08 19:56:43;;;;;;;;;;;;;;;6.17;100.00;97527.03;4925374;29;20284;-81
2024/02/08 19:59:11;;;;;;;;;;;;;;;6.20;100.00;97529.47;4923986;29;20013;-82
2024/02/08 20:01:36;;;;;;;;;;;;;;;6.18;100.00;97518.22;4923707;29;19927;-83
2024/02/08 20:04:03;;;;;;;;;;;;;;;6.20;100.00;97520.75;4924018;29;20286;-84
2024/02/08 20:06:29;;;;;;;;;;;;;;;6.18;100.00;97523.47;4924715;29;19934;-86
2024/02/08 20:08:54;;;;;;;;;;;;;;;6.15;100.00;97513.97;4923802;29;19922;-82
2024/02/08 20:11:27;;;;;;;;;;;;;;;6.17;100.00;97517.38;4925481;29;19927;-83
2024/02/08 20:13:59;;;;;;;;;;;;;;;6.16;100.00;97513.03;4929732;29;19990;-82
2024/02/08 20:16:31;;;;;;;;;;;;;;;6.17;100.00;97514.75;4924700;29;19919;-82
2024/02/08 20:19:01;;;;;;;;;;;;;;;6.18;100.00;97508.53;4925280;29;19986;-89
2024/02/08 20:21:27;;;;;;;;;;;;;;;6.14;100.00;97501.78;4927075;29;19947;-84
2024/02/08 20:23:53;;;;;;;;;;;;;;;6.13;100.00;97499.25;4927196;29;19923;-83
2024/02/08 20:26:25;;;;;;;;;;;;;;;6.11;100.00;97493.22;4934523;29;19931;-83
2024/02/08 20:28:54;;;;;;;;;;;;;;;6.15;100.00;97481.59;4934734;29;20482;-83
2024/02/08 20:31:21;;;;;;;;;;;;;;;6.12;100.00;97481.78;4926240;29;19929;-82
2024/02/08 20:33:47;;;;;;;;;;;;;;;6.10;100.00;97471.34;4918422;29;19926;-83
2024/02/08 20:36:13;;;;;;;;;;;;;;;6.10;100.00;97471.34;4926993;29;19927;-82
2024/02/08 20:38:42;;;;;;;;;;;;;;;6.12;100.00;97455.47;4927723;29;19966;-82
2024/02/08 20:41:10;;;;;;;;;;;;;;;6.09;100.00;97451.25;4910953;29;19927;-82
2024/02/08 20:43:36;;;;;;;;;;;;;;;6.13;100.00;97446.66;4928315;29;19919;-82
2024/02/08 20:46:05;;;;;;;;;;;;;;;6.11;100.00;97444.13;4926986;29;19946;-82
2024/02/08 20:48:33;;;;;;;;;;;;;;;6.14;100.00;97450.97;4910625;29;19982;-82
2024/02/08 20:50:59;;;;;;;;;;;;;;;6.11;100.00;97445.88;4927092;29;20463;-82
2024/02/08 20:53:27;;;;;;;;;;;;;;;6.14;100.00;97448.34;4927256;29;19966;-82
2024/02/08 20:55:55;;;;;;;;;;;;;;;6.12;100.00;97455.47;4927305;29;20375;-83
2024/02/08 20:58:20;;;;;;;;;;;;;;;6.11;100.00;97451.16;4910010;29;20021;-83
2024/02/08 21:00:46;;;;;;;;;;;;;;;6.13;100.00;97457.19;4926199;29;20358;-82
2024/02/08 21:03:15;;;;;;;;;;;;;;;6.08;100.00;97464.47;4928006;29;20386;-83
2024/02/08 21:05:41;;;;;;;;;;;;;;;6.09;100.00;97459.13;4910500;29;19925;-83
2024/02/08 21:08:07;;;;;;;;;;;;;;;6.06;100.00;97458.47;4927640;29;19919;-83
2024/02/08 21:10:33;;;;;;;;;;;;;;;6.09;100.00;97450.41;4927418;29;19970;-80
2024/02/08 21:12:59;;;;;;;;;;;;;;;6.14;100.00;97443.06;4926907;29;19962;-82
2024/02/08 21:15:25;;;;;;;;;;;;;;;6.09;100.00;97440.72;4926636;29;19934;-84
2024/02/08 21:17:51;;;;;;;;;;;;;;;6.09;100.00;97439.88;4926935;29;19930;-83
2024/02/08 21:20:17;;;;;;;;;;;;;;;6.07;100.00;97437.34;4927334;29;20272;-82
2024/02/08 21:22:42;;;;;;;;;;;;;;;6.08;100.00;97432.94;4928679;29;19923;-84
2024/02/08 21:25:08;;;;;;;;;;;;;;;6.09;100.00;97430.22;4926977;29;19958;-83
2024/02/08 21:27:33;;;;;;;;;;;;;;;6.13;100.00;97425.63;4909637;29;19919;-84
2024/02/08 21:30:01;;;;;;;;;;;;;;;6.07;100.00;97423.38;4926238;29;19923;-85
2024/02/08 21:32:26;;;;;;;;;;;;;;;6.09;100.00;97418.84;4925636;29;20367;-83
2024/02/08 21:34:52;;;;;;;;;;;;;;;6.10;100.00;97416.13;4927365;29;20001;-82
2024/02/08 21:37:19;;;;;;;;;;;;;;;6.11;100.00;97406.44;4926671;29;19988;-83
2024/02/08 21:39:49;;;;;;;;;;;;;;;6.06;100.00;97409.38;4926734;29;19931;-83
2024/02/08 21:42:15;;;;;;;;;;;;;;;6.06;100.00;97403.28;4926036;29;19979;-83
2024/02/08 21:44:41;;;;;;;;;;;;;;;6.08;100.00;97411.91;4925661;29;19926;-82
2024/02/08 21:47:07;;;;;;;;;;;;;;;6.07;100.00;97404.97;4926955;29;19919;-83
2024/02/08 21:49:32;;;;;;;;;;;;;;;6.09;100.00;97403.09;4909318;29;19977;-83
2024/02/08 21:51:57;;;;;;;;;;;;;;;6.06;100.00;97393.59;4926405;29;19981;-84
2024/02/08 21:54:26;;;;;;;;;;;;;;;6.04;100.00;97394.63;4932709;29;19922;-84
2024/02/08 21:56:57;;;;;;;;;;;;;;;6.03;100.00;97387.69;4933284;29;20562;-83
2024/02/08 21:59:22;;;;;;;;;;;;;;;6.04;100.00;97390.22;4908355;29;19966;-82
2024/02/08 22:01:51;;;;;;;;;;;;;;;6.02;100.00;97386.84;4926592;29;19931;-82
2024/02/08 22:04:17;;;;;;;;;;;;;;;6.00;100.00;97384.31;4907859;29;19927;-83
2024/02/08 22:06:42;;;;;;;;;;;;;;;5.99;100.00;97385.25;4926262;29;20473;-83
2024/02/08 22:09:10;;;;;;;;;;;;;;;6.02;100.00;97392.09;4909405;29;20390;-82
2024/02/08 22:11:44;;;;;;;;;;;;;;;5.98;100.00;97386.22;4925794;29;20507;-80
2024/02/08 22:14:09;;;;;;;;;;;;;;;6.01;100.00;97385.16;4908553;29;20323;-83
2024/02/08 22:16:35;;;;;;;;;;;;;;;6.05;100.00;97391.06;4906714;29;20092;-81
2024/02/08 22:19:02;;;;;;;;;;;;;;;5.97;100.00;97376.63;4925440;29;20009;-81
2024/02/08 22:21:28;;;;;;;;;;;;;;;6.03;100.00;97371.91;4926264;29;20013;-84
2024/02/08 22:23:53;;;;;;;;;;;;;;;6.05;100.00;97370.88;4908653;29;20446;-83
2024/02/08 22:26:18;;;;;;;;;;;;;;;6.02;100.00;97364.97;4925903;29;20358;-83
2024/02/08 22:28:43;;;;;;;;;;;;;;;5.99;100.00;97361.59;4908762;29;20365;-83
2024/02/08 22:31:10;;;;;;;;;;;;;;;6.04;100.00;97363.09;4924935;29;20425;-81